CES5715 ZPPP-RCTP
Flight info
| Callsign | CES5715 |
|---|---|
| Flight time | 2h 23m |
| Altitude | 39100 |
| Route | K0911S1190 LXI9X LXI A599 POU G471 SHL W22 GUBLO/K0972S0890 R200 BEBEM/N0524F292 R200 OLDID/N0524F290 R200 EXTRA M750 TONGA TONGA1A |
| Aircraft | B789/H-SDE1E2E3FGHIJ2J3J4J5M1RWXY/LB1D1 |
Departure
| Time | 2026-05-08 07:31 |
|---|---|
| Airport | Kunming Changshui International Airport (ZPPP) |
Arrival
| Time | 2026-05-08 09:55 |
|---|---|
| Airport | Taiwan Taoyuan International Airport (RCTP) |
| Time | Latitude | Longitude | Altitude | Speed | Heading |
|---|---|---|---|---|---|
| 2026-05-08 07:16 | 25.09784 | 102.93159 | 6929 ft | 0 kts | 219° |
| 2026-05-08 07:21 | 25.09795 | 102.93169 | 6902 ft | 3 kts | 219° |
| 2026-05-08 07:22 | 25.09810 | 102.93183 | 6902 ft | 3 kts | 218° |
| 2026-05-08 07:22 | 25.09827 | 102.93196 | 6902 ft | 3 kts | 207° |
| 2026-05-08 07:22 | 25.09845 | 102.93204 | 6902 ft | 3 kts | 188° |
| 2026-05-08 07:22 | 25.09863 | 102.93204 | 6902 ft | 3 kts | 148° |
| 2026-05-08 07:23 | 25.09872 | 102.93196 | 6902 ft | 1 kts | 129° |
| 2026-05-08 07:23 | 25.09883 | 102.93181 | 6902 ft | 3 kts | 129° |
| 2026-05-08 07:23 | 25.09892 | 102.93169 | 6902 ft | 0 kts | 129° |
| 2026-05-08 07:25 | 25.09887 | 102.93175 | 6902 ft | 2 kts | 129° |
| 2026-05-08 07:25 | 25.09857 | 102.93215 | 6902 ft | 5 kts | 130° |
| 2026-05-08 07:26 | 25.09823 | 102.93260 | 6902 ft | 10 kts | 130° |
| 2026-05-08 07:26 | 25.09771 | 102.93329 | 6901 ft | 14 kts | 130° |
| 2026-05-08 07:26 | 25.09703 | 102.93339 | 6901 ft | 10 kts | 208° |
| 2026-05-08 07:26 | 25.09637 | 102.93286 | 6901 ft | 13 kts | 218° |
| 2026-05-08 07:27 | 25.09555 | 102.93215 | 6902 ft | 17 kts | 218° |
| 2026-05-08 07:27 | 25.09457 | 102.93130 | 6902 ft | 20 kts | 218° |
| 2026-05-08 07:27 | 25.09342 | 102.93030 | 6902 ft | 23 kts | 218° |
| 2026-05-08 07:27 | 25.09213 | 102.92916 | 6902 ft | 23 kts | 219° |
| 2026-05-08 07:28 | 25.09117 | 102.92891 | 6903 ft | 9 kts | 140° |
| 2026-05-08 07:28 | 25.09081 | 102.92937 | 6902 ft | 8 kts | 130° |
| 2026-05-08 07:28 | 25.09075 | 102.92945 | 6902 ft | 0 kts | 130° |
| 2026-05-08 07:29 | 25.09068 | 102.92955 | 6902 ft | 4 kts | 130° |
| 2026-05-08 07:29 | 25.09036 | 102.92995 | 6901 ft | 10 kts | 130° |
| 2026-05-08 07:29 | 25.08992 | 102.93071 | 6900 ft | 7 kts | 102° |
| 2026-05-08 07:30 | 25.08996 | 102.93086 | 6900 ft | 1 kts | 54° |
| 2026-05-08 07:30 | 25.09004 | 102.93093 | 6900 ft | 4 kts | 44° |
| 2026-05-08 07:30 | 25.09094 | 102.93179 | 6900 ft | 39 kts | 39° |
| 2026-05-08 07:30 | 25.09465 | 102.93501 | 6901 ft | 96 kts | 38° |
| 2026-05-08 07:31 | 25.10124 | 102.94070 | 6900 ft | 145 kts | 37° |
| 2026-05-08 07:31 | 25.11023 | 102.94867 | 6934 ft | 183 kts | 38° |
| 2026-05-08 07:31 | 25.12022 | 102.95664 | 7789 ft | 177 kts | 33° |
| 2026-05-08 07:31 | 25.13050 | 102.96527 | 8222 ft | 193 kts | 39° |
| 2026-05-08 07:32 | 25.13400 | 102.96828 | 8448 ft | 193 kts | 39° |
| 2026-05-08 07:32 | 25.14262 | 102.97653 | 9018 ft | 195 kts | 51° |
| 2026-05-08 07:32 | 25.14659 | 102.99157 | 9085 ft | 226 kts | 98° |
| 2026-05-08 07:32 | 25.14230 | 103.00925 | 9441 ft | 252 kts | 109° |
| 2026-05-08 07:33 | 25.13794 | 103.02902 | 9793 ft | 280 kts | 100° |
| 2026-05-08 07:33 | 25.13630 | 103.05130 | 10424 ft | 296 kts | 93° |
| 2026-05-08 07:33 | 25.13558 | 103.07427 | 11299 ft | 303 kts | 94° |
| 2026-05-08 07:33 | 25.13405 | 103.09774 | 12121 ft | 310 kts | 96° |
| 2026-05-08 07:34 | 25.13209 | 103.12179 | 12970 ft | 318 kts | 96° |
| 2026-05-08 07:34 | 25.13084 | 103.13798 | 13536 ft | 323 kts | 97° |
| 2026-05-08 07:34 | 25.12123 | 103.16863 | 14485 ft | 328 kts | 129° |
| 2026-05-08 07:34 | 25.10526 | 103.18604 | 15348 ft | 325 kts | 145° |
| 2026-05-08 07:35 | 25.08725 | 103.20184 | 16052 ft | 333 kts | 148° |
| 2026-05-08 07:35 | 25.06685 | 103.21324 | 16831 ft | 327 kts | 171° |
| 2026-05-08 07:35 | 25.04445 | 103.21613 | 17580 ft | 321 kts | 191° |
| 2026-05-08 07:35 | 25.02306 | 103.21069 | 18410 ft | 313 kts | 210° |
| 2026-05-08 07:36 | 25.00459 | 103.19846 | 19131 ft | 310 kts | 220° |
| 2026-05-08 07:36 | 24.98679 | 103.18479 | 19872 ft | 313 kts | 220° |
| 2026-05-08 07:36 | 24.96893 | 103.17096 | 20630 ft | 315 kts | 220° |
| 2026-05-08 07:36 | 24.95060 | 103.15674 | 20955 ft | 333 kts | 220° |
| 2026-05-08 07:37 | 24.93094 | 103.14155 | 20990 ft | 358 kts | 219° |
| 2026-05-08 07:37 | 24.90936 | 103.12672 | 21023 ft | 385 kts | 208° |
| 2026-05-08 07:37 | 24.88348 | 103.11746 | 21554 ft | 396 kts | 198° |
| 2026-05-08 07:37 | 24.85575 | 103.11390 | 22195 ft | 408 kts | 186° |
| 2026-05-08 07:38 | 24.82707 | 103.11688 | 22721 ft | 423 kts | 174° |
| 2026-05-08 07:38 | 24.79865 | 103.12707 | 23279 ft | 437 kts | 161° |
| 2026-05-08 07:38 | 24.77226 | 103.14459 | 23776 ft | 452 kts | 147° |
| 2026-05-08 07:38 | 24.74957 | 103.16919 | 24258 ft | 465 kts | 132° |
| 2026-05-08 07:39 | 24.73226 | 103.19969 | 24723 ft | 477 kts | 118° |
| 2026-05-08 07:39 | 24.71958 | 103.23360 | 25156 ft | 482 kts | 114° |
| 2026-05-08 07:39 | 24.70825 | 103.26800 | 25588 ft | 486 kts | 113° |
| 2026-05-08 07:39 | 24.69663 | 103.30297 | 26058 ft | 488 kts | 115° |
| 2026-05-08 07:40 | 24.68421 | 103.33770 | 26540 ft | 490 kts | 116° |
| 2026-05-08 07:40 | 24.67161 | 103.37268 | 26980 ft | 492 kts | 115° |
| 2026-05-08 07:40 | 24.65937 | 103.40799 | 27420 ft | 495 kts | 115° |
| 2026-05-08 07:40 | 24.64716 | 103.44353 | 27848 ft | 498 kts | 115° |
| 2026-05-08 07:41 | 24.63495 | 103.47831 | 28266 ft | 500 kts | 115° |
| 2026-05-08 07:41 | 24.62231 | 103.51394 | 28662 ft | 503 kts | 115° |
| 2026-05-08 07:41 | 24.60964 | 103.55001 | 29084 ft | 505 kts | 115° |
| 2026-05-08 07:41 | 24.59704 | 103.58610 | 29477 ft | 508 kts | 115° |
| 2026-05-08 07:42 | 24.58429 | 103.62243 | 29865 ft | 510 kts | 115° |
| 2026-05-08 07:42 | 24.57577 | 103.64655 | 30109 ft | 512 kts | 116° |
| 2026-05-08 07:42 | 24.56276 | 103.68336 | 30147 ft | 521 kts | 115° |
| 2026-05-08 07:42 | 24.54528 | 103.73315 | 30168 ft | 534 kts | 114° |
| 2026-05-08 07:43 | 24.53805 | 103.75985 | 30201 ft | 542 kts | 106° |
| 2026-05-08 07:43 | 24.52098 | 103.84093 | 30259 ft | 556 kts | 107° |
| 2026-05-08 07:44 | 24.50316 | 103.92446 | 30427 ft | 564 kts | 106° |
| 2026-05-08 07:44 | 24.49424 | 103.96638 | 30698 ft | 564 kts | 106° |
| 2026-05-08 07:44 | 24.48532 | 104.00822 | 30939 ft | 564 kts | 106° |
| 2026-05-08 07:44 | 24.47635 | 104.05011 | 31202 ft | 564 kts | 106° |
| 2026-05-08 07:45 | 24.46732 | 104.09217 | 31421 ft | 564 kts | 106° |
| 2026-05-08 07:45 | 24.45833 | 104.13417 | 31669 ft | 564 kts | 106° |
| 2026-05-08 07:45 | 24.44935 | 104.17601 | 31997 ft | 563 kts | 106° |
| 2026-05-08 07:45 | 24.44035 | 104.21784 | 32267 ft | 563 kts | 106° |
| 2026-05-08 07:46 | 24.43145 | 104.25908 | 32546 ft | 562 kts | 106° |
| 2026-05-08 07:46 | 24.42246 | 104.30077 | 32793 ft | 562 kts | 106° |
| 2026-05-08 07:46 | 24.41346 | 104.34245 | 33087 ft | 561 kts | 106° |
| 2026-05-08 07:46 | 24.40445 | 104.38409 | 33347 ft | 561 kts | 106° |
| 2026-05-08 07:47 | 24.39542 | 104.42576 | 33651 ft | 559 kts | 107° |
| 2026-05-08 07:47 | 24.38639 | 104.46737 | 33895 ft | 559 kts | 106° |
| 2026-05-08 07:47 | 24.37738 | 104.50884 | 34151 ft | 559 kts | 106° |
| 2026-05-08 07:47 | 24.36836 | 104.55032 | 34417 ft | 558 kts | 106° |
| 2026-05-08 07:48 | 24.35934 | 104.59174 | 34656 ft | 558 kts | 106° |
| 2026-05-08 07:48 | 24.35033 | 104.63303 | 34866 ft | 558 kts | 106° |
| 2026-05-08 07:48 | 24.34128 | 104.67443 | 35131 ft | 557 kts | 106° |
| 2026-05-08 07:48 | 24.33225 | 104.71573 | 35372 ft | 557 kts | 106° |
| 2026-05-08 07:49 | 24.32334 | 104.75645 | 35613 ft | 556 kts | 106° |
| 2026-05-08 07:49 | 24.31430 | 104.79761 | 35848 ft | 556 kts | 106° |
| 2026-05-08 07:49 | 24.30525 | 104.83878 | 36094 ft | 555 kts | 106° |
| 2026-05-08 07:49 | 24.29621 | 104.87989 | 36317 ft | 555 kts | 105° |
| 2026-05-08 07:50 | 24.28716 | 104.92100 | 36526 ft | 555 kts | 105° |
| 2026-05-08 07:50 | 24.27809 | 104.96210 | 36739 ft | 555 kts | 105° |
| 2026-05-08 07:50 | 24.26903 | 105.00313 | 37054 ft | 553 kts | 105° |
| 2026-05-08 07:50 | 24.25997 | 105.04413 | 37248 ft | 553 kts | 105° |
| 2026-05-08 07:51 | 24.25090 | 105.08507 | 37447 ft | 553 kts | 105° |
| 2026-05-08 07:51 | 24.24181 | 105.12606 | 37657 ft | 553 kts | 105° |
| 2026-05-08 07:51 | 24.23271 | 105.16701 | 37871 ft | 553 kts | 105° |
| 2026-05-08 07:51 | 24.22358 | 105.20808 | 38084 ft | 552 kts | 105° |
| 2026-05-08 07:52 | 24.21357 | 105.24858 | 38259 ft | 552 kts | 107° |
| 2026-05-08 07:52 | 24.20387 | 105.28932 | 38470 ft | 552 kts | 105° |
| 2026-05-08 07:52 | 24.19449 | 105.33004 | 38659 ft | 552 kts | 106° |
| 2026-05-08 07:52 | 24.18477 | 105.37011 | 38859 ft | 551 kts | 107° |
| 2026-05-08 07:53 | 24.17467 | 105.41053 | 39072 ft | 550 kts | 107° |
| 2026-05-08 07:53 | 24.15504 | 105.49189 | 39128 ft | 552 kts | 106° |
| 2026-05-08 07:54 | 24.13529 | 105.57283 | 39127 ft | 547 kts | 107° |
| 2026-05-08 07:54 | 24.11567 | 105.65317 | 39118 ft | 545 kts | 106° |
| 2026-05-08 07:55 | 24.09760 | 105.73385 | 39128 ft | 546 kts | 103° |
| 2026-05-08 07:55 | 24.08133 | 105.81478 | 39111 ft | 547 kts | 104° |
| 2026-05-08 07:56 | 24.06527 | 105.89635 | 39113 ft | 547 kts | 103° |
| 2026-05-08 07:56 | 24.04906 | 105.97758 | 39112 ft | 546 kts | 103° |
| 2026-05-08 07:57 | 24.03288 | 106.05875 | 39107 ft | 545 kts | 103° |
| 2026-05-08 07:57 | 24.01666 | 106.13982 | 39105 ft | 545 kts | 104° |
| 2026-05-08 07:58 | 24.00039 | 106.22083 | 39106 ft | 545 kts | 103° |
| 2026-05-08 07:58 | 23.98420 | 106.30133 | 39104 ft | 544 kts | 104° |
| 2026-05-08 07:59 | 23.96938 | 106.37466 | 39099 ft | 545 kts | 103° |
| 2026-05-08 07:59 | 23.95300 | 106.45572 | 39102 ft | 545 kts | 104° |
| 2026-05-08 08:00 | 23.93655 | 106.53672 | 39108 ft | 545 kts | 104° |
| 2026-05-08 08:00 | 23.92221 | 106.61758 | 39141 ft | 546 kts | 94° |
| 2026-05-08 08:01 | 23.91685 | 106.70052 | 39118 ft | 547 kts | 94° |
| 2026-05-08 08:01 | 23.91136 | 106.78355 | 39107 ft | 547 kts | 95° |
| 2026-05-08 08:02 | 23.90578 | 106.86661 | 39116 ft | 547 kts | 95° |
| 2026-05-08 08:02 | 23.90022 | 106.94964 | 39103 ft | 547 kts | 95° |
| 2026-05-08 08:03 | 23.89456 | 107.03265 | 39098 ft | 547 kts | 95° |
| 2026-05-08 08:03 | 23.88893 | 107.11519 | 39119 ft | 548 kts | 95° |
| 2026-05-08 08:04 | 23.88318 | 107.19831 | 39095 ft | 548 kts | 95° |
| 2026-05-08 08:04 | 23.87743 | 107.28125 | 39092 ft | 547 kts | 95° |
| 2026-05-08 08:05 | 23.87163 | 107.36377 | 39095 ft | 547 kts | 95° |
| 2026-05-08 08:05 | 23.86580 | 107.44660 | 39100 ft | 547 kts | 95° |
| 2026-05-08 08:06 | 23.85990 | 107.52941 | 39106 ft | 547 kts | 95° |
| 2026-05-08 08:06 | 23.85396 | 107.61228 | 39096 ft | 547 kts | 95° |
| 2026-05-08 08:07 | 23.84797 | 107.69527 | 39104 ft | 548 kts | 95° |
| 2026-05-08 08:07 | 23.84193 | 107.77826 | 39104 ft | 547 kts | 95° |
| 2026-05-08 08:08 | 23.83616 | 107.86126 | 39113 ft | 547 kts | 91° |
| 2026-05-08 08:08 | 23.83199 | 107.94377 | 39112 ft | 547 kts | 94° |
| 2026-05-08 08:09 | 23.82771 | 108.02681 | 39113 ft | 548 kts | 93° |
| 2026-05-08 08:09 | 23.82355 | 108.11009 | 39105 ft | 548 kts | 94° |
| 2026-05-08 08:10 | 23.81913 | 108.19316 | 39109 ft | 548 kts | 94° |
| 2026-05-08 08:10 | 23.81449 | 108.27576 | 39112 ft | 548 kts | 94° |
| 2026-05-08 08:11 | 23.80982 | 108.35878 | 39113 ft | 548 kts | 94° |
| 2026-05-08 08:11 | 23.80513 | 108.44190 | 39107 ft | 548 kts | 94° |
| 2026-05-08 08:12 | 23.80036 | 108.52490 | 39108 ft | 548 kts | 94° |
| 2026-05-08 08:12 | 23.79557 | 108.60804 | 39106 ft | 547 kts | 94° |
| 2026-05-08 08:13 | 23.79071 | 108.69104 | 39107 ft | 547 kts | 94° |
| 2026-05-08 08:13 | 23.78587 | 108.77352 | 39104 ft | 548 kts | 94° |
| 2026-05-08 08:14 | 23.78093 | 108.85653 | 39106 ft | 548 kts | 94° |
| 2026-05-08 08:14 | 23.77595 | 108.93956 | 39107 ft | 547 kts | 94° |
| 2026-05-08 08:15 | 23.77093 | 109.02248 | 39104 ft | 547 kts | 94° |
| 2026-05-08 08:15 | 23.76587 | 109.10545 | 39102 ft | 546 kts | 94° |
| 2026-05-08 08:16 | 23.75532 | 109.18734 | 39084 ft | 545 kts | 103° |
| 2026-05-08 08:16 | 23.73897 | 109.26754 | 39093 ft | 544 kts | 103° |
| 2026-05-08 08:17 | 23.72281 | 109.34830 | 39089 ft | 545 kts | 103° |
| 2026-05-08 08:17 | 23.70634 | 109.42947 | 39086 ft | 544 kts | 103° |
| 2026-05-08 08:18 | 23.69014 | 109.50951 | 39088 ft | 544 kts | 103° |
| 2026-05-08 08:18 | 23.67373 | 109.59019 | 39091 ft | 543 kts | 103° |
| 2026-05-08 08:19 | 23.65726 | 109.67064 | 39086 ft | 543 kts | 104° |
| 2026-05-08 08:19 | 23.64066 | 109.75087 | 39091 ft | 542 kts | 104° |
| 2026-05-08 08:20 | 23.62411 | 109.83111 | 39092 ft | 542 kts | 104° |
| 2026-05-08 08:20 | 23.60746 | 109.91127 | 39093 ft | 542 kts | 104° |
| 2026-05-08 08:21 | 23.59092 | 109.99087 | 39089 ft | 541 kts | 104° |
| 2026-05-08 08:21 | 23.57425 | 110.07082 | 39087 ft | 541 kts | 104° |
| 2026-05-08 08:22 | 23.55754 | 110.15076 | 39084 ft | 540 kts | 104° |
| 2026-05-08 08:22 | 23.54080 | 110.23065 | 39080 ft | 540 kts | 104° |
| 2026-05-08 08:23 | 23.52404 | 110.31038 | 39082 ft | 539 kts | 104° |
| 2026-05-08 08:23 | 23.50729 | 110.39012 | 39078 ft | 539 kts | 103° |
| 2026-05-08 08:24 | 23.49132 | 110.47001 | 39083 ft | 540 kts | 103° |
| 2026-05-08 08:24 | 23.47492 | 110.54988 | 39080 ft | 541 kts | 103° |
| 2026-05-08 08:25 | 23.45864 | 110.62994 | 39079 ft | 541 kts | 103° |
| 2026-05-08 08:25 | 23.44231 | 110.70955 | 39077 ft | 541 kts | 103° |
| 2026-05-08 08:26 | 23.42561 | 110.78949 | 39083 ft | 541 kts | 104° |
| 2026-05-08 08:26 | 23.40867 | 110.86935 | 39080 ft | 541 kts | 103° |
| 2026-05-08 08:27 | 23.39184 | 110.94925 | 39079 ft | 542 kts | 103° |
| 2026-05-08 08:27 | 23.37484 | 111.02919 | 39078 ft | 542 kts | 103° |
| 2026-05-08 08:28 | 23.35787 | 111.10912 | 39079 ft | 542 kts | 103° |
| 2026-05-08 08:28 | 23.34107 | 111.18861 | 39075 ft | 542 kts | 103° |
| 2026-05-08 08:29 | 23.32502 | 111.26887 | 39075 ft | 542 kts | 103° |
| 2026-05-08 08:29 | 23.30842 | 111.34885 | 39077 ft | 542 kts | 103° |
| 2026-05-08 08:30 | 23.29207 | 111.42896 | 39077 ft | 542 kts | 103° |
| 2026-05-08 08:30 | 23.27005 | 111.53546 | 39081 ft | 542 kts | 103° |
| 2026-05-08 08:31 | 23.25318 | 111.61539 | 39074 ft | 542 kts | 103° |
| 2026-05-08 08:31 | 23.23355 | 111.70804 | 39073 ft | 542 kts | 103° |
| 2026-05-08 08:32 | 23.21932 | 111.77511 | 39068 ft | 542 kts | 103° |
| 2026-05-08 08:32 | 23.20245 | 111.85441 | 39065 ft | 541 kts | 103° |
| 2026-05-08 08:33 | 23.18602 | 111.93447 | 39059 ft | 542 kts | 103° |
| 2026-05-08 08:33 | 23.16927 | 112.01433 | 39054 ft | 541 kts | 103° |
| 2026-05-08 08:34 | 23.15275 | 112.09369 | 39056 ft | 541 kts | 103° |
| 2026-05-08 08:34 | 23.13603 | 112.17340 | 39053 ft | 541 kts | 103° |
| 2026-05-08 08:35 | 23.11931 | 112.25308 | 39053 ft | 541 kts | 103° |
| 2026-05-08 08:35 | 23.10254 | 112.33273 | 39041 ft | 541 kts | 103° |
| 2026-05-08 08:36 | 23.08571 | 112.41244 | 39051 ft | 541 kts | 103° |
| 2026-05-08 08:36 | 23.06982 | 112.49233 | 39068 ft | 539 kts | 95° |
| 2026-05-08 08:37 | 23.06418 | 112.57321 | 39062 ft | 541 kts | 93° |
| 2026-05-08 08:37 | 23.05878 | 112.65473 | 39049 ft | 540 kts | 94° |
| 2026-05-08 08:38 | 23.05320 | 112.73607 | 39050 ft | 540 kts | 93° |
| 2026-05-08 08:38 | 23.04769 | 112.81732 | 39042 ft | 540 kts | 94° |
| 2026-05-08 08:39 | 23.04206 | 112.89856 | 39043 ft | 540 kts | 94° |
| 2026-05-08 08:39 | 23.03645 | 112.97983 | 39041 ft | 539 kts | 94° |
| 2026-05-08 08:40 | 23.03077 | 113.06095 | 39035 ft | 539 kts | 94° |
| 2026-05-08 08:40 | 23.02507 | 113.14204 | 39040 ft | 539 kts | 94° |
| 2026-05-08 08:41 | 23.02516 | 113.22315 | 39050 ft | 537 kts | 82° |
| 2026-05-08 08:41 | 23.03392 | 113.30322 | 39029 ft | 538 kts | 81° |
| 2026-05-08 08:42 | 23.04252 | 113.38392 | 39030 ft | 538 kts | 82° |
| 2026-05-08 08:42 | 23.05114 | 113.46464 | 39033 ft | 538 kts | 82° |
| 2026-05-08 08:43 | 23.05973 | 113.54545 | 39035 ft | 538 kts | 82° |
| 2026-05-08 08:43 | 23.06824 | 113.62611 | 39037 ft | 538 kts | 82° |
| 2026-05-08 08:44 | 23.07631 | 113.70688 | 39026 ft | 538 kts | 88° |
| 2026-05-08 08:44 | 23.07457 | 113.74747 | 39055 ft | 540 kts | 99° |
| 2026-05-08 08:44 | 23.06604 | 113.78709 | 39058 ft | 540 kts | 110° |
| 2026-05-08 08:45 | 23.05105 | 113.82446 | 39062 ft | 538 kts | 122° |
| 2026-05-08 08:45 | 23.03025 | 113.85805 | 39063 ft | 535 kts | 133° |
| 2026-05-08 08:45 | 23.00438 | 113.88687 | 39062 ft | 532 kts | 144° |
| 2026-05-08 08:45 | 22.97443 | 113.91003 | 39065 ft | 527 kts | 155° |
| 2026-05-08 08:46 | 22.90912 | 113.94522 | 39039 ft | 524 kts | 158° |
| 2026-05-08 08:46 | 22.84272 | 113.97569 | 39039 ft | 522 kts | 156° |
| 2026-05-08 08:47 | 22.81134 | 113.99592 | 39046 ft | 528 kts | 145° |
| 2026-05-08 08:47 | 22.78352 | 114.02216 | 39051 ft | 532 kts | 134° |
| 2026-05-08 08:47 | 22.76035 | 114.05355 | 39059 ft | 535 kts | 123° |
| 2026-05-08 08:47 | 22.74270 | 114.08907 | 39062 ft | 537 kts | 112° |
| 2026-05-08 08:48 | 22.73124 | 114.12756 | 39063 ft | 537 kts | 100° |
| 2026-05-08 08:48 | 22.72641 | 114.16752 | 39066 ft | 535 kts | 89° |
| 2026-05-08 08:48 | 22.73209 | 114.24771 | 39047 ft | 534 kts | 82° |
| 2026-05-08 08:49 | 22.74049 | 114.32755 | 39041 ft | 533 kts | 82° |
| 2026-05-08 08:49 | 22.74864 | 114.40743 | 39044 ft | 533 kts | 82° |
| 2026-05-08 08:50 | 22.75678 | 114.48686 | 39037 ft | 533 kts | 82° |
| 2026-05-08 08:50 | 22.76491 | 114.56666 | 39042 ft | 533 kts | 82° |
| 2026-05-08 08:51 | 22.77310 | 114.64651 | 39037 ft | 532 kts | 82° |
| 2026-05-08 08:51 | 22.78122 | 114.72635 | 39029 ft | 532 kts | 82° |
| 2026-05-08 08:52 | 22.78950 | 114.80610 | 39030 ft | 532 kts | 81° |
| 2026-05-08 08:52 | 22.79809 | 114.88517 | 39035 ft | 532 kts | 82° |
| 2026-05-08 08:53 | 22.80642 | 114.96495 | 39025 ft | 532 kts | 82° |
| 2026-05-08 08:53 | 22.81489 | 115.04468 | 39027 ft | 532 kts | 82° |
| 2026-05-08 08:54 | 22.82320 | 115.12441 | 39027 ft | 532 kts | 82° |
| 2026-05-08 08:54 | 22.83154 | 115.20416 | 39030 ft | 532 kts | 82° |
| 2026-05-08 08:55 | 22.83979 | 115.28379 | 39022 ft | 531 kts | 82° |
| 2026-05-08 08:55 | 22.84803 | 115.36340 | 39025 ft | 530 kts | 82° |
| 2026-05-08 08:56 | 22.85618 | 115.44283 | 39026 ft | 530 kts | 82° |
| 2026-05-08 08:56 | 22.86430 | 115.52214 | 39033 ft | 529 kts | 82° |
| 2026-05-08 08:57 | 22.87236 | 115.60135 | 39025 ft | 529 kts | 82° |
| 2026-05-08 08:57 | 22.88033 | 115.68013 | 39033 ft | 529 kts | 82° |
| 2026-05-08 08:58 | 22.88834 | 115.75960 | 39037 ft | 529 kts | 82° |
| 2026-05-08 08:58 | 22.89629 | 115.83893 | 39042 ft | 530 kts | 82° |
| 2026-05-08 08:59 | 22.90429 | 115.91836 | 39043 ft | 530 kts | 81° |
| 2026-05-08 08:59 | 22.91280 | 115.99776 | 39040 ft | 530 kts | 81° |
| 2026-05-08 09:00 | 22.92097 | 116.07742 | 39045 ft | 532 kts | 81° |
| 2026-05-08 09:00 | 22.92923 | 116.15718 | 39046 ft | 532 kts | 81° |
| 2026-05-08 09:01 | 22.93734 | 116.23636 | 39048 ft | 531 kts | 81° |
| 2026-05-08 09:01 | 22.94549 | 116.31610 | 39048 ft | 531 kts | 81° |
| 2026-05-08 09:02 | 22.95157 | 116.39599 | 39056 ft | 532 kts | 85° |
| 2026-05-08 09:02 | 22.95545 | 116.47624 | 39062 ft | 532 kts | 85° |
| 2026-05-08 09:03 | 22.95909 | 116.55638 | 39064 ft | 532 kts | 85° |
| 2026-05-08 09:03 | 22.96276 | 116.63657 | 39061 ft | 532 kts | 85° |
| 2026-05-08 09:04 | 22.96636 | 116.71653 | 39064 ft | 533 kts | 85° |
| 2026-05-08 09:04 | 22.96993 | 116.79683 | 39070 ft | 533 kts | 85° |
| 2026-05-08 09:05 | 22.97348 | 116.87723 | 39072 ft | 534 kts | 85° |
| 2026-05-08 09:05 | 22.97698 | 116.95772 | 39078 ft | 534 kts | 85° |
| 2026-05-08 09:06 | 22.98045 | 117.03826 | 39078 ft | 534 kts | 85° |
| 2026-05-08 09:06 | 22.98386 | 117.11847 | 39082 ft | 535 kts | 85° |
| 2026-05-08 09:07 | 22.98725 | 117.19917 | 39086 ft | 535 kts | 85° |
| 2026-05-08 09:07 | 22.99061 | 117.27987 | 39081 ft | 535 kts | 85° |
| 2026-05-08 09:08 | 22.99392 | 117.36072 | 39087 ft | 535 kts | 85° |
| 2026-05-08 09:08 | 22.99467 | 117.44150 | 39106 ft | 538 kts | 97° |
| 2026-05-08 09:09 | 22.98694 | 117.48127 | 39108 ft | 540 kts | 108° |
| 2026-05-08 09:09 | 22.97272 | 117.51890 | 39106 ft | 541 kts | 120° |
| 2026-05-08 09:09 | 22.95242 | 117.55317 | 39110 ft | 540 kts | 131° |
| 2026-05-08 09:09 | 22.92778 | 117.58321 | 39091 ft | 539 kts | 134° |
| 2026-05-08 09:10 | 22.87635 | 117.64244 | 39084 ft | 539 kts | 135° |
| 2026-05-08 09:10 | 22.82486 | 117.70151 | 39081 ft | 539 kts | 134° |
| 2026-05-08 09:11 | 22.77366 | 117.76040 | 39081 ft | 539 kts | 135° |
| 2026-05-08 09:11 | 22.72215 | 117.81937 | 39078 ft | 539 kts | 134° |
| 2026-05-08 09:12 | 22.67061 | 117.87847 | 39074 ft | 538 kts | 134° |
| 2026-05-08 09:12 | 22.61905 | 117.93740 | 39073 ft | 539 kts | 134° |
| 2026-05-08 09:13 | 22.57011 | 117.99832 | 39068 ft | 535 kts | 131° |
| 2026-05-08 09:13 | 22.52219 | 118.05936 | 39054 ft | 530 kts | 130° |
| 2026-05-08 09:14 | 22.47652 | 118.12096 | 39071 ft | 528 kts | 120° |
| 2026-05-08 09:14 | 22.45979 | 118.15680 | 39095 ft | 528 kts | 108° |
| 2026-05-08 09:14 | 22.44971 | 118.19433 | 39102 ft | 526 kts | 97° |
| 2026-05-08 09:15 | 22.44606 | 118.23351 | 39098 ft | 522 kts | 86° |
| 2026-05-08 09:15 | 22.44904 | 118.27239 | 39082 ft | 517 kts | 75° |
| 2026-05-08 09:15 | 22.47122 | 118.33977 | 39076 ft | 505 kts | 54° |
| 2026-05-08 09:16 | 22.50740 | 118.40456 | 39068 ft | 503 kts | 54° |
| 2026-05-08 09:16 | 22.54392 | 118.46885 | 39067 ft | 502 kts | 54° |
| 2026-05-08 09:17 | 22.58015 | 118.53314 | 39065 ft | 503 kts | 54° |
| 2026-05-08 09:17 | 22.61702 | 118.59749 | 39070 ft | 502 kts | 54° |
| 2026-05-08 09:18 | 22.64746 | 118.65106 | 39068 ft | 503 kts | 54° |
| 2026-05-08 09:18 | 22.69007 | 118.72600 | 39068 ft | 502 kts | 54° |
| 2026-05-08 09:19 | 22.72072 | 118.77997 | 39069 ft | 502 kts | 54° |
| 2026-05-08 09:19 | 22.75713 | 118.84419 | 39069 ft | 503 kts | 54° |
| 2026-05-08 09:20 | 22.79372 | 118.90875 | 39067 ft | 502 kts | 54° |
| 2026-05-08 09:20 | 22.83027 | 118.97336 | 39071 ft | 502 kts | 54° |
| 2026-05-08 09:21 | 22.86683 | 119.03804 | 39068 ft | 502 kts | 54° |
| 2026-05-08 09:23 | 22.99421 | 119.26407 | 39067 ft | 502 kts | 54° |
| 2026-05-08 09:23 | 23.03061 | 119.32886 | 39069 ft | 502 kts | 54° |
| 2026-05-08 09:24 | 23.06704 | 119.39377 | 39068 ft | 503 kts | 54° |
| 2026-05-08 09:24 | 23.10317 | 119.45823 | 39067 ft | 503 kts | 54° |
| 2026-05-08 09:25 | 23.13965 | 119.52340 | 39064 ft | 503 kts | 54° |
| 2026-05-08 09:25 | 23.18032 | 119.58442 | 39072 ft | 494 kts | 38° |
| 2026-05-08 09:26 | 23.23531 | 119.62742 | 39067 ft | 486 kts | 25° |
| 2026-05-08 09:26 | 23.29350 | 119.66408 | 39071 ft | 487 kts | 25° |
| 2026-05-08 09:27 | 23.35220 | 119.70100 | 39075 ft | 488 kts | 25° |
| 2026-05-08 09:27 | 23.41091 | 119.73807 | 39031 ft | 484 kts | 25° |
| 2026-05-08 09:27 | 23.44003 | 119.75643 | 38215 ft | 486 kts | 25° |
| 2026-05-08 09:28 | 23.46945 | 119.77496 | 37472 ft | 487 kts | 25° |
| 2026-05-08 09:28 | 23.49780 | 119.79407 | 36829 ft | 487 kts | 27° |
| 2026-05-08 09:28 | 23.52592 | 119.81348 | 36174 ft | 486 kts | 26° |
| 2026-05-08 09:28 | 23.54495 | 119.82639 | 35710 ft | 487 kts | 26° |
| 2026-05-08 09:29 | 23.55659 | 119.83429 | 35431 ft | 487 kts | 26° |
| 2026-05-08 09:29 | 23.58074 | 119.85082 | 34852 ft | 490 kts | 27° |
| 2026-05-08 09:29 | 23.60929 | 119.87061 | 34154 ft | 493 kts | 27° |
| 2026-05-08 09:29 | 23.63826 | 119.89068 | 33423 ft | 492 kts | 27° |
| 2026-05-08 09:30 | 23.66719 | 119.91058 | 32728 ft | 490 kts | 27° |
| 2026-05-08 09:30 | 23.69489 | 119.92962 | 32066 ft | 489 kts | 27° |
| 2026-05-08 09:30 | 23.72337 | 119.94928 | 31396 ft | 487 kts | 27° |
| 2026-05-08 09:30 | 23.75195 | 119.96906 | 30724 ft | 485 kts | 27° |
| 2026-05-08 09:31 | 23.78042 | 119.98873 | 30058 ft | 483 kts | 27° |
| 2026-05-08 09:31 | 23.80816 | 120.00788 | 29365 ft | 481 kts | 28° |
| 2026-05-08 09:31 | 23.83628 | 120.02733 | 28710 ft | 476 kts | 28° |
| 2026-05-08 09:31 | 23.86418 | 120.04665 | 28059 ft | 472 kts | 28° |
| 2026-05-08 09:32 | 23.89178 | 120.06575 | 27420 ft | 468 kts | 28° |
| 2026-05-08 09:32 | 23.90612 | 120.07568 | 27090 ft | 466 kts | 28° |
| 2026-05-08 09:32 | 23.92689 | 120.09007 | 26613 ft | 464 kts | 28° |
| 2026-05-08 09:32 | 23.95186 | 120.10737 | 26037 ft | 460 kts | 28° |
| 2026-05-08 09:33 | 23.97879 | 120.12606 | 25419 ft | 457 kts | 28° |
| 2026-05-08 09:33 | 24.00528 | 120.14443 | 24813 ft | 454 kts | 28° |
| 2026-05-08 09:33 | 24.03188 | 120.16289 | 24203 ft | 451 kts | 28° |
| 2026-05-08 09:33 | 24.05830 | 120.18123 | 23599 ft | 448 kts | 28° |
| 2026-05-08 09:34 | 24.08454 | 120.19946 | 22952 ft | 444 kts | 29° |
| 2026-05-08 09:34 | 24.11051 | 120.21753 | 22353 ft | 439 kts | 29° |
| 2026-05-08 09:34 | 24.13610 | 120.23533 | 21781 ft | 433 kts | 29° |
| 2026-05-08 09:34 | 24.15448 | 120.24812 | 21345 ft | 430 kts | 29° |
| 2026-05-08 09:35 | 24.17992 | 120.26584 | 20793 ft | 425 kts | 28° |
| 2026-05-08 09:35 | 24.20168 | 120.28097 | 20291 ft | 421 kts | 28° |
| 2026-05-08 09:35 | 24.22601 | 120.29792 | 19742 ft | 416 kts | 28° |
| 2026-05-08 09:35 | 24.24816 | 120.31335 | 19246 ft | 412 kts | 29° |
| 2026-05-08 09:36 | 24.26899 | 120.32790 | 18778 ft | 409 kts | 29° |
| 2026-05-08 09:36 | 24.29290 | 120.34458 | 18246 ft | 405 kts | 29° |
| 2026-05-08 09:36 | 24.31655 | 120.36110 | 17659 ft | 400 kts | 29° |
| 2026-05-08 09:36 | 24.33512 | 120.37407 | 17163 ft | 396 kts | 28° |
| 2026-05-08 09:37 | 24.35485 | 120.38780 | 16819 ft | 389 kts | 28° |
| 2026-05-08 09:37 | 24.37738 | 120.40352 | 16319 ft | 383 kts | 29° |
| 2026-05-08 09:37 | 24.38886 | 120.41158 | 16064 ft | 380 kts | 29° |
| 2026-05-08 09:37 | 24.41074 | 120.42690 | 15575 ft | 375 kts | 29° |
| 2026-05-08 09:38 | 24.43269 | 120.44224 | 15083 ft | 373 kts | 29° |
| 2026-05-08 09:38 | 24.45454 | 120.45752 | 14596 ft | 370 kts | 28° |
| 2026-05-08 09:38 | 24.47609 | 120.47260 | 14232 ft | 365 kts | 29° |
| 2026-05-08 09:38 | 24.49760 | 120.48765 | 13806 ft | 368 kts | 29° |
| 2026-05-08 09:39 | 24.51903 | 120.50267 | 13293 ft | 362 kts | 29° |
| 2026-05-08 09:39 | 24.53921 | 120.51685 | 12843 ft | 359 kts | 29° |
| 2026-05-08 09:39 | 24.56019 | 120.53155 | 12356 ft | 355 kts | 29° |
| 2026-05-08 09:39 | 24.58085 | 120.54602 | 11912 ft | 352 kts | 30° |
| 2026-05-08 09:40 | 24.60147 | 120.56051 | 11453 ft | 350 kts | 30° |
| 2026-05-08 09:40 | 24.62152 | 120.57460 | 10996 ft | 343 kts | 30° |
| 2026-05-08 09:40 | 24.64140 | 120.58855 | 10696 ft | 333 kts | 30° |
| 2026-05-08 09:40 | 24.66039 | 120.60191 | 10572 ft | 316 kts | 30° |
| 2026-05-08 09:41 | 24.67808 | 120.61533 | 10435 ft | 301 kts | 40° |
| 2026-05-08 09:41 | 24.69302 | 120.63072 | 10255 ft | 291 kts | 39° |
| 2026-05-08 09:41 | 24.70841 | 120.64532 | 9972 ft | 292 kts | 39° |
| 2026-05-08 09:41 | 24.72362 | 120.65993 | 9672 ft | 290 kts | 40° |
| 2026-05-08 09:42 | 24.73858 | 120.67472 | 9367 ft | 290 kts | 40° |
| 2026-05-08 09:42 | 24.75358 | 120.68958 | 9095 ft | 289 kts | 40° |
| 2026-05-08 09:42 | 24.76839 | 120.70415 | 8821 ft | 285 kts | 40° |
| 2026-05-08 09:42 | 24.78324 | 120.71872 | 8536 ft | 287 kts | 40° |
| 2026-05-08 09:43 | 24.79793 | 120.73316 | 8253 ft | 282 kts | 40° |
| 2026-05-08 09:43 | 24.81264 | 120.74764 | 7967 ft | 285 kts | 41° |
| 2026-05-08 09:43 | 24.82726 | 120.76204 | 7692 ft | 280 kts | 41° |
| 2026-05-08 09:43 | 24.84181 | 120.77638 | 7414 ft | 282 kts | 41° |
| 2026-05-08 09:44 | 24.85634 | 120.79069 | 7133 ft | 277 kts | 41° |
| 2026-05-08 09:44 | 24.87071 | 120.80485 | 6846 ft | 279 kts | 41° |
| 2026-05-08 09:44 | 24.88514 | 120.81907 | 6568 ft | 275 kts | 41° |
| 2026-05-08 09:44 | 24.89938 | 120.83312 | 6286 ft | 276 kts | 41° |
| 2026-05-08 09:45 | 24.91312 | 120.84752 | 5980 ft | 269 kts | 52° |
| 2026-05-08 09:45 | 24.92059 | 120.86594 | 5750 ft | 263 kts | 78° |
| 2026-05-08 09:45 | 24.92335 | 120.88454 | 5487 ft | 232 kts | 83° |
| 2026-05-08 09:45 | 24.92493 | 120.89945 | 5269 ft | 212 kts | 84° |
| 2026-05-08 09:46 | 24.92656 | 120.91444 | 5056 ft | 194 kts | 83° |
| 2026-05-08 09:46 | 24.92826 | 120.92864 | 4877 ft | 186 kts | 82° |
| 2026-05-08 09:46 | 24.92995 | 120.94248 | 4700 ft | 177 kts | 82° |
| 2026-05-08 09:46 | 24.93152 | 120.95548 | 4519 ft | 163 kts | 82° |
| 2026-05-08 09:47 | 24.93297 | 120.96754 | 4367 ft | 154 kts | 82° |
| 2026-05-08 09:47 | 24.93423 | 120.97814 | 4206 ft | 134 kts | 82° |
| 2026-05-08 09:47 | 24.93549 | 120.98857 | 4133 ft | 142 kts | 82° |
| 2026-05-08 09:47 | 24.93672 | 120.99888 | 4046 ft | 131 kts | 81° |
| 2026-05-08 09:48 | 24.93797 | 121.00926 | 3984 ft | 134 kts | 81° |
| 2026-05-08 09:48 | 24.93918 | 121.01920 | 3917 ft | 136 kts | 81° |
| 2026-05-08 09:48 | 24.94043 | 121.02956 | 3845 ft | 133 kts | 82° |
| 2026-05-08 09:48 | 24.94166 | 121.03998 | 3777 ft | 136 kts | 82° |
| 2026-05-08 09:49 | 24.94285 | 121.04992 | 3699 ft | 135 kts | 82° |
| 2026-05-08 09:49 | 24.94408 | 121.06034 | 3585 ft | 128 kts | 81° |
| 2026-05-08 09:49 | 24.94529 | 121.07013 | 3501 ft | 134 kts | 81° |
| 2026-05-08 09:49 | 24.94904 | 121.07948 | 3381 ft | 138 kts | 58° |
| 2026-05-08 09:50 | 24.95490 | 121.08791 | 3269 ft | 140 kts | 54° |
| 2026-05-08 09:50 | 24.96104 | 121.09615 | 3091 ft | 137 kts | 52° |
| 2026-05-08 09:50 | 24.96703 | 121.10399 | 2913 ft | 132 kts | 53° |
| 2026-05-08 09:50 | 24.97302 | 121.11168 | 2750 ft | 132 kts | 52° |
| 2026-05-08 09:51 | 24.97887 | 121.11919 | 2565 ft | 125 kts | 51° |
| 2026-05-08 09:51 | 24.98462 | 121.12653 | 2409 ft | 131 kts | 51° |
| 2026-05-08 09:51 | 24.99067 | 121.13425 | 2226 ft | 131 kts | 50° |
| 2026-05-08 09:51 | 24.99647 | 121.14159 | 2056 ft | 124 kts | 51° |
| 2026-05-08 09:52 | 25.00212 | 121.14876 | 1884 ft | 124 kts | 53° |
| 2026-05-08 09:52 | 25.00797 | 121.15628 | 1729 ft | 133 kts | 51° |
| 2026-05-08 09:52 | 25.01374 | 121.16353 | 1566 ft | 134 kts | 51° |
| 2026-05-08 09:52 | 25.01988 | 121.17140 | 1378 ft | 132 kts | 50° |
| 2026-05-08 09:53 | 25.02589 | 121.17902 | 1208 ft | 132 kts | 48° |
| 2026-05-08 09:53 | 25.03192 | 121.18667 | 1038 ft | 133 kts | 49° |
| 2026-05-08 09:53 | 25.03680 | 121.19292 | 889 ft | 131 kts | 48° |
| 2026-05-08 09:53 | 25.04274 | 121.20050 | 705 ft | 129 kts | 48° |
| 2026-05-08 09:54 | 25.04856 | 121.20795 | 540 ft | 128 kts | 47° |
| 2026-05-08 09:54 | 25.05433 | 121.21527 | 361 ft | 126 kts | 46° |
| 2026-05-08 09:54 | 25.06015 | 121.22264 | 172 ft | 129 kts | 48° |
| 2026-05-08 09:54 | 25.06568 | 121.22965 | 101 ft | 105 kts | 48° |
| 2026-05-08 09:55 | 25.06901 | 121.23388 | 102 ft | 51 kts | 49° |
| 2026-05-08 09:55 | 25.07111 | 121.23639 | 101 ft | 36 kts | 37° |
| 2026-05-08 09:55 | 25.07306 | 121.23744 | 103 ft | 25 kts | 19° |
| 2026-05-08 09:55 | 25.07448 | 121.23791 | 105 ft | 18 kts | 7° |
| 2026-05-08 09:56 | 25.07544 | 121.23748 | 106 ft | 14 kts | 320° |
| 2026-05-08 09:56 | 25.07616 | 121.23691 | 106 ft | 7 kts | 346° |
| 2026-05-08 09:56 | 25.07631 | 121.23695 | 106 ft | 2 kts | 27° |
| 2026-05-08 09:56 | 25.07645 | 121.23710 | 106 ft | 4 kts | 45° |
| 2026-05-08 09:57 | 25.07737 | 121.23808 | 106 ft | 15 kts | 44° |
| 2026-05-08 09:57 | 25.07813 | 121.23904 | 106 ft | 14 kts | 50° |
| 2026-05-08 09:57 | 25.07834 | 121.23922 | 106 ft | 1 kts | 5° |
| 2026-05-08 09:58 | 25.07854 | 121.23913 | 106 ft | 6 kts | 329° |
| 2026-05-08 09:58 | 25.07905 | 121.23868 | 106 ft | 10 kts | 320° |
| 2026-05-08 09:58 | 25.07931 | 121.23843 | 106 ft | 2 kts | 319° |
| 2026-05-08 09:58 | 25.07935 | 121.23840 | 106 ft | 0 kts | 319° |